createdAt,value
2023-05-13T00:00:17.589Z,100607.84
2023-05-13T00:01:20.378Z,100606.05
2023-05-13T00:02:23.011Z,100603.37
2023-05-13T00:03:26.524Z,100598.03
2023-05-13T00:04:29.708Z,100598.03
2023-05-13T00:05:33.421Z,100602.48
2023-05-13T00:06:36.338Z,100599.81
2023-05-13T00:07:41.023Z,100600.70
2023-05-13T00:08:43.960Z,100600.70
2023-05-13T00:09:47.054Z,100598.88
2023-05-13T00:10:50.067Z,100606.05
2023-05-13T00:11:52.942Z,100600.70
2023-05-13T00:12:55.862Z,100603.37
2023-05-13T00:15:12.047Z,100609.00
2023-05-13T00:16:15.632Z,100607.84
2023-05-13T00:17:18.183Z,100609.58
2023-05-13T00:18:20.724Z,100610.52
2023-05-13T00:19:24.084Z,100605.08
2023-05-13T00:20:26.791Z,100610.42
2023-05-13T00:21:30.183Z,100611.31
2023-05-13T00:22:32.682Z,100613.09
2023-05-13T00:23:35.344Z,100613.09
2023-05-13T00:24:38.478Z,100615.77
2023-05-13T00:25:43.860Z,100623.80
2023-05-13T00:26:47.156Z,100613.98
2023-05-13T00:27:51.576Z,100617.59
2023-05-13T00:28:54.543Z,100612.25
2023-05-13T00:29:58.944Z,100617.68
2023-05-13T00:31:01.922Z,100612.25
2023-05-13T00:32:05.774Z,100621.20
2023-05-13T00:33:08.704Z,100615.01
2023-05-13T00:34:11.978Z,100616.74
2023-05-13T00:35:15.038Z,100618.53
2023-05-13T00:36:18.213Z,100613.19
2023-05-13T00:37:21.706Z,100622.94
2023-05-13T00:38:24.612Z,100624.77
2023-05-13T00:39:28.224Z,100618.45
2023-05-13T00:40:30.937Z,100621.12
2023-05-13T00:41:34.416Z,100615.77
2023-05-13T00:42:37.225Z,100626.55
2023-05-13T00:43:40.702Z,100615.77
2023-05-13T00:44:43.559Z,100620.27
2023-05-13T00:45:47.719Z,100624.77
2023-05-13T00:46:50.526Z,100623.80
2023-05-13T00:47:53.491Z,100622.00
2023-05-13T00:48:56.814Z,100622.00
2023-05-13T00:49:59.509Z,100624.59
2023-05-13T00:51:03.233Z,100623.80
2023-05-13T00:52:07.287Z,100620.27
2023-05-13T00:53:11.183Z,100620.27
2023-05-13T00:54:13.826Z,100621.12
2023-05-13T00:55:16.916Z,100614.06
2023-05-13T00:56:23.394Z,100620.27
2023-05-13T00:57:26.263Z,100623.80
2023-05-13T00:58:31.713Z,100622.09
2023-05-13T00:59:34.296Z,100620.27
2023-05-13T01:02:09.318Z,100611.67
2023-05-13T01:04:41.298Z,100612.61
2023-05-13T01:05:50.614Z,100614.13
2023-05-13T01:07:30.735Z,100610.59
2023-05-13T01:10:17.425Z,100611.85
2023-05-13T01:11:32.817Z,100618.62
2023-05-13T01:12:37.173Z,100615.09
2023-05-13T01:13:41.746Z,100615.09
2023-05-13T01:16:37.349Z,100608.47
2023-05-13T01:17:59.153Z,100620.66
2023-05-13T01:19:06.122Z,100615.31
2023-05-13T01:20:10.057Z,100616.28
2023-05-13T01:21:14.862Z,100616.20
2023-05-13T01:22:18.920Z,100616.28
2023-05-13T01:23:21.928Z,100611.79
2023-05-13T01:24:24.654Z,100616.28
2023-05-13T01:25:28.659Z,100613.70
2023-05-13T01:26:31.679Z,100618.08
2023-05-13T01:27:34.660Z,100618.08
2023-05-13T01:28:37.662Z,100611.88
2023-05-13T01:29:40.721Z,100616.28
2023-05-13T01:30:43.592Z,100617.99
2023-05-13T01:31:46.986Z,100614.46
2023-05-13T01:32:50.316Z,100624.22
2023-05-13T01:33:54.090Z,100612.59
2023-05-13T01:34:58.142Z,100614.38
2023-05-13T01:36:01.954Z,100609.91
2023-05-13T01:37:06.217Z,100610.77
2023-05-13T01:38:09.613Z,100613.44
2023-05-13T01:39:12.905Z,100611.62
2023-05-13T01:40:31.747Z,100611.62
2023-05-13T01:41:22.833Z,100610.77
2023-05-13T01:42:29.112Z,100607.16
2023-05-13T01:43:33.831Z,100604.48
2023-05-13T01:44:37.734Z,100608.95
2023-05-13T01:45:40.908Z,100609.83
2023-05-13T01:46:44.228Z,100601.81
2023-05-13T01:47:47.579Z,100610.68
2023-05-13T01:48:50.425Z,100610.59
2023-05-13T01:49:53.850Z,100601.72
2023-05-13T01:50:57.630Z,100605.34
2023-05-13T01:52:00.799Z,100604.39
2023-05-13T01:53:04.252Z,100600.84
2023-05-13T01:54:07.922Z,100603.52
2023-05-13T01:55:12.673Z,100609.75
2023-05-13T01:56:16.281Z,100611.45
2023-05-13T01:57:19.652Z,100606.19
2023-05-13T01:58:24.289Z,100610.59
2023-05-13T01:59:27.339Z,100606.19
2023-05-13T02:00:30.210Z,100603.52
2023-05-13T02:01:33.428Z,100607.16
2023-05-13T02:02:36.408Z,100599.14
2023-05-13T02:03:39.579Z,100603.52
2023-05-13T02:04:42.401Z,100602.66
2023-05-13T02:05:47.017Z,100604.48
2023-05-13T02:06:50.028Z,100605.34
2023-05-13T02:07:54.747Z,100610.68
2023-05-13T02:08:59.611Z,100608.01
2023-05-13T02:10:04.016Z,100611.62
2023-05-13T02:11:07.897Z,100612.59
2023-05-13T02:12:10.721Z,100608.09
2023-05-13T02:13:14.592Z,100616.97
2023-05-13T02:14:17.402Z,100610.77
2023-05-13T02:15:20.423Z,100610.77
2023-05-13T02:16:23.474Z,100618.79
2023-05-13T02:17:26.485Z,100614.30
2023-05-13T02:18:29.344Z,100612.59
2023-05-13T02:19:32.682Z,100618.79
2023-05-13T02:20:35.620Z,100611.62
2023-05-13T02:21:38.428Z,100616.97
2023-05-13T02:22:44.537Z,100612.59
2023-05-13T02:23:48.164Z,100615.27
2023-05-13T02:24:50.987Z,100617.94
2023-05-13T02:25:55.087Z,100614.38
2023-05-13T02:26:57.796Z,100621.55
2023-05-13T02:28:00.984Z,100624.22
2023-05-13T02:29:03.816Z,100613.53
2023-05-13T02:30:09.622Z,100621.55
2023-05-13T02:31:13.708Z,100615.31
2023-05-13T02:32:17.735Z,100624.22
2023-05-13T02:33:20.854Z,100626.01
2023-05-13T02:34:24.113Z,100620.66
2023-05-13T02:35:29.811Z,100627.75
2023-05-13T02:36:36.879Z,100626.01
2023-05-13T02:37:40.237Z,100626.01
2023-05-13T02:38:45.554Z,100629.57
2023-05-13T02:39:49.316Z,100626.89
2023-05-13T02:40:54.638Z,100626.01
2023-05-13T02:41:59.313Z,100634.91
2023-05-13T02:43:03.522Z,100627.75
2023-05-13T02:44:08.015Z,100635.77
2023-05-13T02:45:12.712Z,100634.91
2023-05-13T02:46:16.418Z,100627.83
2023-05-13T02:47:20.517Z,100634.91
2023-05-13T02:48:23.296Z,100630.50
2023-05-13T02:49:27.182Z,100639.38
2023-05-13T02:50:30.603Z,100633.98
2023-05-13T02:51:34.334Z,100634.91
2023-05-13T02:52:39.300Z,100641.11
2023-05-13T02:53:42.271Z,100646.47
2023-05-13T02:54:46.072Z,100638.44
2023-05-13T02:55:49.338Z,100642.00
2023-05-13T02:56:53.436Z,100643.79
2023-05-13T02:58:09.818Z,100648.28
2023-05-13T02:59:12.509Z,100644.67
2023-05-13T03:00:18.532Z,100646.47
2023-05-13T03:01:21.274Z,100646.47
2023-05-13T03:02:24.790Z,100646.47
2023-05-13T03:03:29.336Z,100640.27
2023-05-13T03:04:32.213Z,100644.73
2023-05-13T03:05:34.748Z,100643.79
2023-05-13T03:06:38.018Z,100648.28
2023-05-13T03:07:41.711Z,100643.02
2023-05-13T03:08:44.439Z,100642.14
2023-05-13T03:09:47.882Z,100650.16
2023-05-13T03:10:51.163Z,100644.81
2023-05-13T03:11:54.502Z,100642.14
2023-05-13T03:12:57.201Z,100647.48
2023-05-13T03:13:59.617Z,100650.16
2023-05-13T03:15:03.060Z,100646.63
2023-05-13T03:16:05.943Z,100651.05
2023-05-13T03:17:08.900Z,100653.72
2023-05-13T03:18:11.739Z,100653.72
2023-05-13T03:19:14.947Z,100655.50
2023-05-13T03:20:18.297Z,100656.39
2023-05-13T03:21:21.453Z,100652.83
2023-05-13T03:22:24.223Z,100653.72
2023-05-13T03:23:28.029Z,100658.18
2023-05-13T03:24:32.243Z,100656.39
2023-05-13T03:25:36.132Z,100651.89
2023-05-13T03:26:39.073Z,100659.92
2023-05-13T03:27:42.312Z,100659.92
2023-05-13T03:28:45.767Z,100654.57
2023-05-13T03:29:49.486Z,100663.44
2023-05-13T03:30:52.532Z,100655.42
2023-05-13T03:31:55.280Z,100660.77
2023-05-13T03:32:59.560Z,100667.00
2023-05-13T03:34:03.570Z,100660.77
2023-05-13T03:35:07.901Z,100662.59
2023-05-13T03:36:11.883Z,100665.27
2023-05-13T03:37:15.601Z,100665.27
2023-05-13T03:39:30.514Z,100662.03
2023-05-13T03:41:45.720Z,100662.97
2023-05-13T03:42:50.408Z,100671.47
2023-05-13T03:43:55.414Z,100668.79
2023-05-13T03:44:58.126Z,100671.41
2023-05-13T03:46:00.849Z,100668.73
2023-05-13T03:47:04.459Z,100673.20
2023-05-13T03:48:07.518Z,100671.41
2023-05-13T03:49:10.181Z,100668.73
2023-05-13T03:50:13.684Z,100664.24
2023-05-13T03:51:18.735Z,100666.92
2023-05-13T03:52:22.254Z,100672.27
2023-05-13T03:53:26.638Z,100669.59
2023-05-13T03:54:29.818Z,100674.94
2023-05-13T03:55:33.656Z,100675.79
2023-05-13T03:56:37.059Z,100674.00
2023-05-13T03:57:40.595Z,100680.20
2023-05-13T03:58:43.685Z,100681.05
2023-05-13T03:59:46.475Z,100683.73
2023-05-13T04:00:49.206Z,100678.38
2023-05-13T04:01:52.985Z,100688.14
2023-05-13T04:02:57.075Z,100683.64
2023-05-13T04:03:59.982Z,100680.20
2023-05-13T04:05:05.207Z,100688.14
2023-05-13T04:06:08.118Z,100681.05
2023-05-13T04:07:11.407Z,100683.73
2023-05-13T04:08:15.344Z,100683.73
2023-05-13T04:09:20.052Z,100678.47
2023-05-13T04:10:22.995Z,100687.38
2023-05-13T04:11:26.823Z,100686.48
2023-05-13T04:12:33.130Z,100687.38
2023-05-13T04:13:37.199Z,100683.81
2023-05-13T04:14:40.201Z,100697.19
2023-05-13T04:15:42.980Z,100697.19
2023-05-13T04:16:46.762Z,100686.48
2023-05-13T04:17:50.202Z,100690.05
2023-05-13T04:18:52.905Z,100688.31
2023-05-13T04:19:56.689Z,100685.64
2023-05-13T04:21:06.747Z,100684.78
2023-05-13T04:22:09.769Z,100688.31
2023-05-13T04:23:13.926Z,100688.31
2023-05-13T04:25:31.213Z,100690.42
2023-05-13T04:26:34.832Z,100693.66
2023-05-13T04:27:37.800Z,100703.41
2023-05-13T04:28:42.276Z,100689.16
2023-05-13T04:29:45.686Z,100690.98
2023-05-13T04:30:49.196Z,100698.07
2023-05-13T04:31:52.730Z,100705.13
2023-05-13T04:32:56.038Z,100693.48
2023-05-13T04:33:58.987Z,100689.08
2023-05-13T04:35:02.812Z,100692.63
2023-05-13T04:36:07.239Z,100689.96
2023-05-13T04:37:10.838Z,100693.48
2023-05-13T04:38:13.768Z,100696.16
2023-05-13T04:39:16.453Z,100689.88
2023-05-13T04:40:20.575Z,100694.34
2023-05-13T04:41:24.332Z,100697.90
2023-05-13T04:42:28.022Z,100695.23
2023-05-13T04:43:31.478Z,100697.90
2023-05-13T04:44:36.446Z,100697.90
2023-05-13T04:45:40.079Z,100705.03
2023-05-13T04:46:45.709Z,100697.90
2023-05-13T04:47:49.885Z,100697.90
2023-05-13T04:48:53.831Z,100702.36
2023-05-13T04:49:57.822Z,100704.98
2023-05-13T04:51:01.104Z,100696.97
2023-05-13T04:52:06.614Z,100698.75
2023-05-13T04:53:10.005Z,100704.98
2023-05-13T04:54:13.347Z,100698.67
2023-05-13T04:55:16.997Z,100701.34
2023-05-13T04:56:20.291Z,100698.67
2023-05-13T04:57:23.467Z,100693.32
2023-05-13T04:58:29.634Z,100693.32
2023-05-13T05:00:45.732Z,100695.44
2023-05-13T05:01:49.731Z,100691.53
2023-05-13T05:02:52.843Z,100692.47
2023-05-13T05:03:56.203Z,100696.97
2023-05-13T05:04:58.972Z,100696.00
2023-05-13T05:06:01.534Z,100705.84
2023-05-13T05:07:06.128Z,100690.73
2023-05-13T05:08:09.031Z,100696.97
2023-05-13T05:09:12.700Z,100696.97
2023-05-13T05:10:16.163Z,100696.08
2023-05-13T05:11:21.416Z,100699.64
2023-05-13T05:12:25.589Z,100693.41
2023-05-13T05:13:29.350Z,100696.97
2023-05-13T05:15:44.143Z,100701.73
2023-05-13T05:16:48.554Z,100697.90
2023-05-13T05:17:51.323Z,100695.23
2023-05-13T05:18:54.103Z,100696.08
2023-05-13T05:19:58.490Z,100698.75
2023-05-13T05:21:02.606Z,100708.52
2023-05-13T05:22:05.590Z,100694.30
2023-05-13T05:23:10.146Z,100699.55
2023-05-13T05:24:12.776Z,100696.00
2023-05-13T05:25:16.464Z,100706.69
2023-05-13T05:26:19.424Z,100698.67
2023-05-13T05:27:24.008Z,100699.55
2023-05-13T05:28:27.028Z,100702.23
2023-05-13T05:29:29.755Z,100708.43
2023-05-13T05:30:34.337Z,100697.73
2023-05-13T05:31:39.492Z,100700.41
2023-05-13T05:32:42.360Z,100704.81
2023-05-13T05:33:45.109Z,100705.75
2023-05-13T05:34:47.917Z,100704.81
2023-05-13T05:35:50.982Z,100714.58
2023-05-13T05:36:55.670Z,100706.55
2023-05-13T05:37:59.885Z,100705.67
2023-05-13T05:39:02.907Z,100711.02
2023-05-13T05:40:10.623Z,100713.70
2023-05-13T05:41:15.256Z,100719.92
2023-05-13T05:42:19.099Z,100719.04
2023-05-13T05:43:21.848Z,100715.52
2023-05-13T05:44:26.422Z,100719.92
2023-05-13T05:45:30.037Z,100711.91
2023-05-13T05:46:33.387Z,100712.76
2023-05-13T05:47:36.852Z,100711.91
2023-05-13T05:48:41.301Z,100714.50
2023-05-13T05:49:45.580Z,100716.28
2023-05-13T05:50:48.779Z,100718.11
2023-05-13T05:51:53.924Z,100715.44
2023-05-13T05:52:58.627Z,100715.34
2023-05-13T05:54:03.388Z,100716.28
2023-05-13T05:55:08.525Z,100718.02
2023-05-13T05:56:13.934Z,100713.61
2023-05-13T05:57:18.170Z,100719.84
2023-05-13T05:58:22.346Z,100714.50
2023-05-13T05:59:28.497Z,100716.28
2023-05-13T06:00:36.066Z,100719.84
2023-05-13T06:01:39.438Z,100713.61
2023-05-13T06:02:43.258Z,100716.28
2023-05-13T06:03:47.372Z,100715.44
2023-05-13T06:04:51.528Z,100715.44
2023-05-13T06:05:55.757Z,100721.63
2023-05-13T06:06:58.664Z,100718.96
2023-05-13T06:08:01.721Z,100718.96
2023-05-13T06:09:06.562Z,100716.28
2023-05-13T06:10:11.179Z,100713.61
2023-05-13T06:11:15.493Z,100724.30
2023-05-13T06:12:18.735Z,100718.02
2023-05-13T06:13:21.334Z,100714.50
2023-05-13T06:14:25.314Z,100715.34
2023-05-13T06:15:30.284Z,100716.28
2023-05-13T06:16:34.332Z,100718.11
2023-05-13T06:17:37.698Z,100722.60
2023-05-13T06:18:40.887Z,100716.37
2023-05-13T06:19:44.592Z,100722.60
2023-05-13T06:20:47.497Z,100718.96
2023-05-13T06:21:51.498Z,100721.63
2023-05-13T06:22:55.414Z,100719.84
2023-05-13T06:24:01.896Z,100718.02
2023-05-13T06:25:05.384Z,100717.09
2023-05-13T06:26:11.149Z,100718.87
2023-05-13T06:27:14.652Z,100710.85
2023-05-13T06:28:18.652Z,100720.70
2023-05-13T06:29:22.370Z,100719.77
2023-05-13T06:30:25.384Z,100718.02
2023-05-13T06:31:30.115Z,100714.50
2023-05-13T06:32:32.968Z,100717.17
2023-05-13T06:33:35.857Z,100712.67
2023-05-13T06:34:39.809Z,100720.70
2023-05-13T06:35:44.586Z,100710.00
2023-05-13T06:36:48.301Z,100711.73
2023-05-13T06:37:51.860Z,100718.02
2023-05-13T06:38:55.177Z,100715.34
2023-05-13T06:39:59.883Z,100718.87
2023-05-13T06:42:14.546Z,100719.20
2023-05-13T06:43:21.527Z,100717.94
2023-05-13T06:44:26.033Z,100709.06
2023-05-13T06:45:30.782Z,100721.50
2023-05-13T06:46:34.091Z,100716.15
2023-05-13T06:47:37.190Z,100722.35
2023-05-13T06:48:40.850Z,100717.00
2023-05-13T06:49:44.188Z,100718.83
2023-05-13T06:50:49.171Z,100719.67
2023-05-13T06:51:51.867Z,100719.67
2023-05-13T06:52:54.705Z,100719.67
2023-05-13T06:53:58.814Z,100723.20
2023-05-13T06:55:02.210Z,100714.24
2023-05-13T06:56:05.966Z,100713.39
2023-05-13T06:57:09.778Z,100715.19
2023-05-13T06:58:12.451Z,100713.39
2023-05-13T06:59:16.332Z,100711.66
2023-05-13T07:00:20.972Z,100711.57
2023-05-13T07:01:24.140Z,100711.57
2023-05-13T07:02:27.872Z,100709.83
2023-05-13T07:03:31.000Z,100715.19
2023-05-13T07:04:34.128Z,100709.83
2023-05-13T07:05:37.731Z,100714.33
2023-05-13T07:06:40.701Z,100707.16
2023-05-13T07:07:43.636Z,100706.30
2023-05-13T07:08:46.391Z,100709.83
2023-05-13T07:09:50.061Z,100708.98
2023-05-13T07:10:52.788Z,100712.50
2023-05-13T07:11:55.813Z,100719.67
2023-05-13T07:12:58.320Z,100710.80
2023-05-13T07:14:00.874Z,100706.30
2023-05-13T07:15:04.233Z,100705.45
2023-05-13T07:16:07.856Z,100703.63
2023-05-13T07:17:11.118Z,100701.81
2023-05-13T07:18:14.240Z,100701.81
2023-05-13T07:19:18.540Z,100700.02
2023-05-13T07:20:22.977Z,100702.78
2023-05-13T07:21:26.186Z,100703.63
2023-05-13T07:22:28.969Z,100705.45
2023-05-13T07:23:33.080Z,100701.04
2023-05-13T07:24:35.549Z,100702.78
2023-05-13T07:25:40.013Z,100704.48
2023-05-13T07:26:42.786Z,100705.45
2023-05-13T07:27:47.327Z,100711.57
2023-05-13T07:28:51.165Z,100708.89
2023-05-13T07:29:54.249Z,100704.40
2023-05-13T07:30:58.292Z,100706.22
2023-05-13T07:32:05.189Z,100707.08
2023-05-13T07:33:09.205Z,100701.73
2023-05-13T07:34:12.915Z,100712.42
2023-05-13T07:35:17.502Z,100706.22
2023-05-13T07:36:21.706Z,100706.22
2023-05-13T07:37:24.677Z,100703.55
2023-05-13T07:38:27.388Z,100703.55
2023-05-13T07:39:31.031Z,100707.95
2023-05-13T07:40:33.821Z,100704.31
2023-05-13T07:41:37.802Z,100705.20
2023-05-13T07:42:40.642Z,100702.52
2023-05-13T07:43:43.714Z,100707.87
2023-05-13T07:44:46.512Z,100706.94
2023-05-13T07:47:03.820Z,100707.31
2023-05-13T07:48:06.885Z,100706.94
2023-05-13T07:49:09.700Z,100709.61
2023-05-13T07:50:15.018Z,100706.05
2023-05-13T07:51:18.388Z,100707.79
2023-05-13T07:52:21.294Z,100699.77
2023-05-13T07:53:24.392Z,100702.44
2023-05-13T07:54:27.931Z,100709.53
2023-05-13T07:55:31.844Z,100702.44
2023-05-13T07:56:35.329Z,100708.64
2023-05-13T07:57:38.900Z,100703.30
2023-05-13T07:58:41.712Z,100702.44
2023-05-13T07:59:45.089Z,100707.79
2023-05-13T08:00:48.899Z,100705.12
2023-05-13T08:01:52.258Z,100706.05
2023-05-13T08:02:56.594Z,100705.20
2023-05-13T08:04:00.828Z,100705.20
2023-05-13T08:05:04.871Z,100703.46
2023-05-13T08:06:09.918Z,100703.46
2023-05-13T08:07:12.712Z,100705.28
2023-05-13T08:08:15.788Z,100704.40
2023-05-13T08:09:19.975Z,100706.22
2023-05-13T08:10:23.470Z,100698.20
2023-05-13T08:11:26.364Z,100705.37
2023-05-13T08:12:30.050Z,100709.83
2023-05-13T08:13:33.802Z,100708.13
2023-05-13T08:14:36.402Z,100699.22
2023-05-13T08:15:40.331Z,100702.83
2023-05-13T08:16:43.767Z,100699.30
2023-05-13T08:17:48.669Z,100699.30
2023-05-13T08:18:51.708Z,100713.61
2023-05-13T08:19:54.421Z,100706.47
2023-05-13T08:20:57.341Z,100699.30
2023-05-13T08:22:00.693Z,100706.39
2023-05-13T08:23:03.993Z,100700.11
2023-05-13T08:24:08.176Z,100706.39
2023-05-13T08:25:12.172Z,100703.71
2023-05-13T08:26:16.321Z,100700.11
2023-05-13T08:27:19.285Z,100705.45
2023-05-13T08:28:22.457Z,100700.11
2023-05-13T08:29:26.012Z,100703.63
2023-05-13T08:30:29.114Z,100695.69
2023-05-13T08:31:32.034Z,100694.75
2023-05-13T08:32:35.544Z,100697.42
2023-05-13T08:33:41.518Z,100694.75
2023-05-13T08:34:44.212Z,100691.11
2023-05-13T08:35:46.937Z,100694.67
2023-05-13T08:36:50.228Z,100698.28
2023-05-13T08:37:53.086Z,100703.63
2023-05-13T08:38:56.124Z,100699.13
2023-05-13T08:40:00.829Z,100702.69
2023-05-13T08:41:06.085Z,100698.20
2023-05-13T08:42:09.008Z,100700.88
2023-05-13T08:43:12.210Z,100690.17
2023-05-13T08:45:30.903Z,100687.87
2023-05-13T08:46:34.862Z,100688.44
2023-05-13T08:47:55.043Z,100690.17
2023-05-13T08:48:58.500Z,100677.73
2023-05-13T08:50:02.948Z,100682.15
2023-05-13T08:51:05.941Z,100684.83
2023-05-13T08:52:08.816Z,100680.33
2023-05-13T08:53:12.550Z,100680.41
2023-05-13T08:54:17.142Z,100677.73
2023-05-13T08:55:20.397Z,100676.03
2023-05-13T08:56:25.122Z,100672.47
2023-05-13T08:57:28.076Z,100678.71
2023-05-13T08:58:31.387Z,100675.06
2023-05-13T08:59:36.000Z,100670.60
2023-05-13T09:00:39.176Z,100670.43
2023-05-13T09:01:43.958Z,100668.61
2023-05-13T09:02:48.049Z,100673.88
2023-05-13T09:03:58.149Z,100672.94
2023-05-13T09:05:04.927Z,100672.08
2023-05-13T09:06:07.962Z,100666.65
2023-05-13T09:07:11.409Z,100671.06
2023-05-13T09:08:15.035Z,100666.56
2023-05-13T09:09:18.080Z,100667.41
2023-05-13T09:10:21.000Z,100665.62
2023-05-13T09:11:24.893Z,100654.92
2023-05-13T09:14:06.084Z,100656.09
2023-05-13T09:15:11.497Z,100655.69
2023-05-13T09:16:15.747Z,100661.04
2023-05-13T09:17:18.559Z,100659.30
2023-05-13T09:18:21.150Z,100654.84
2023-05-13T09:19:26.155Z,100661.84
2023-05-13T09:21:42.976Z,100650.65
2023-05-13T09:22:51.176Z,100653.81
2023-05-13T09:25:25.867Z,100648.86
2023-05-13T09:26:29.764Z,100648.47
2023-05-13T09:27:41.637Z,100643.11
2023-05-13T09:28:46.235Z,100646.64
2023-05-13T09:29:53.161Z,100638.62
2023-05-13T09:30:56.397Z,100650.17
2023-05-13T09:32:01.276Z,100635.94
2023-05-13T09:33:10.646Z,100637.77
2023-05-13T09:34:13.394Z,100638.62
2023-05-13T09:35:17.380Z,100631.62
2023-05-13T09:36:20.156Z,100624.39
2023-05-13T09:37:23.976Z,100623.42
2023-05-13T09:39:42.504Z,100622.02
2023-05-13T09:40:58.311Z,100615.39
2023-05-13T09:42:04.311Z,100625.23
2023-05-13T09:43:11.064Z,100616.36
2023-05-13T09:44:15.373Z,100615.48
2023-05-13T09:45:18.137Z,100612.80
2023-05-13T09:46:22.254Z,100619.04
2023-05-13T09:47:26.093Z,100615.48
2023-05-13T09:48:30.559Z,100618.24
2023-05-13T09:50:57.699Z,100616.05
2023-05-13T09:52:00.942Z,100610.39
2023-05-13T09:53:19.240Z,100607.72
2023-05-13T09:56:09.426Z,100602.67
2023-05-13T09:58:32.329Z,100590.55
2023-05-13T09:59:35.523Z,100605.12
2023-05-13T10:00:42.388Z,100603.39
2023-05-13T10:02:58.532Z,100599.20
2023-05-13T10:04:04.954Z,100598.05
2023-05-13T10:05:26.529Z,100601.57
2023-05-13T10:06:32.458Z,100589.17
2023-05-13T10:07:36.966Z,100595.37
2023-05-13T10:08:39.653Z,100591.84
2023-05-13T10:09:43.497Z,100588.28
2023-05-13T10:10:46.557Z,100585.61
2023-05-13T10:11:51.299Z,100589.17
2023-05-13T10:13:59.053Z,100591.84
2023-05-13T10:16:14.128Z,100588.50
2023-05-13T10:18:29.888Z,100589.44
2023-05-13T10:19:33.643Z,100591.75
2023-05-13T10:20:37.068Z,100581.99
2023-05-13T10:21:46.027Z,100585.52
2023-05-13T10:22:51.522Z,100583.73
2023-05-13T10:23:55.900Z,100588.20
2023-05-13T10:25:02.614Z,100585.52
2023-05-13T10:26:06.424Z,100581.05
2023-05-13T10:27:09.407Z,100579.32
2023-05-13T10:29:25.642Z,100580.47
2023-05-13T10:30:30.718Z,100580.17
2023-05-13T10:31:34.979Z,100582.84
2023-05-13T10:32:41.202Z,100575.80
2023-05-13T10:33:45.653Z,100580.17
2023-05-13T10:34:48.727Z,100578.47
2023-05-13T10:37:48.902Z,100576.91
2023-05-13T10:39:20.497Z,100567.77
2023-05-13T10:41:00.349Z,100573.97
2023-05-13T10:42:25.722Z,100575.80
2023-05-13T10:43:32.232Z,100569.56
2023-05-13T10:44:35.145Z,100575.00
2023-05-13T10:45:37.986Z,100570.59
2023-05-13T10:46:42.624Z,100569.82
2023-05-13T10:47:49.640Z,100570.77
2023-05-13T10:48:58.339Z,100571.73
2023-05-13T10:51:24.389Z,100565.01
2023-05-13T10:52:30.719Z,100569.11
2023-05-13T10:53:36.752Z,100570.94
2023-05-13T10:54:41.805Z,100570.94
2023-05-13T10:55:45.933Z,100570.08
2023-05-13T10:56:58.674Z,100570.08
2023-05-13T10:58:12.743Z,100568.35
2023-05-13T10:59:17.770Z,100570.08
2023-05-13T11:02:55.154Z,100553.42
2023-05-13T11:04:03.770Z,100566.44
2023-05-13T11:05:07.269Z,100558.42
2023-05-13T11:06:18.834Z,100566.44
2023-05-13T11:07:22.535Z,100558.42
2023-05-13T11:08:40.486Z,100559.22
2023-05-13T11:09:51.008Z,100560.95
2023-05-13T11:10:56.752Z,100554.63
2023-05-13T11:12:00.245Z,100558.09
2023-05-13T11:13:23.393Z,100554.48
2023-05-13T11:14:27.861Z,100560.59
2023-05-13T11:15:47.982Z,100556.05
2023-05-13T11:17:04.357Z,100552.48
2023-05-13T11:18:07.108Z,100553.28
2023-05-13T11:19:18.837Z,100553.19
2023-05-13T11:21:36.114Z,100555.22
2023-05-13T11:23:59.818Z,100548.05
2023-05-13T11:25:12.104Z,100548.52
2023-05-13T11:26:17.815Z,100549.40
2023-05-13T11:27:21.762Z,100553.78
2023-05-13T11:28:59.556Z,100546.64
2023-05-13T11:30:03.308Z,100555.45
2023-05-13T11:31:16.430Z,100550.98
2023-05-13T11:34:14.363Z,100546.83
2023-05-13T11:35:24.096Z,100545.64
2023-05-13T11:36:30.745Z,100545.64
2023-05-13T11:37:33.440Z,100546.49
2023-05-13T11:38:39.025Z,100545.55
2023-05-13T11:39:42.286Z,100545.55
2023-05-13T11:40:45.645Z,100546.40
2023-05-13T11:41:49.939Z,100545.64
2023-05-13T11:42:54.652Z,100543.81
2023-05-13T11:43:59.118Z,100541.99
2023-05-13T11:45:03.955Z,100543.73
2023-05-13T11:46:07.517Z,100536.58
2023-05-13T11:47:11.541Z,100537.44
2023-05-13T11:49:41.870Z,100538.53
2023-05-13T11:50:45.364Z,100543.55
2023-05-13T11:51:48.984Z,100539.93
2023-05-13T11:52:58.262Z,100534.58
2023-05-13T11:56:40.787Z,100528.53
2023-05-13T11:59:14.037Z,100529.39
2023-05-13T12:00:18.884Z,100534.40
2023-05-13T12:01:24.756Z,100522.75
2023-05-13T12:03:42.985Z,100514.97
2023-05-13T12:04:46.188Z,100523.55
2023-05-13T12:05:51.842Z,100512.84
2023-05-13T12:06:54.526Z,100520.78
2023-05-13T12:07:58.232Z,100511.78
2023-05-13T12:09:09.150Z,100511.78
2023-05-13T12:10:14.573Z,100522.48
2023-05-13T12:11:17.484Z,100515.34
2023-05-13T12:12:20.469Z,100517.08
2023-05-13T12:13:23.334Z,100513.52
2023-05-13T12:14:27.887Z,100516.09
2023-05-13T12:15:31.221Z,100520.60
2023-05-13T12:16:34.185Z,100517.92
2023-05-13T12:17:38.499Z,100510.75
2023-05-13T12:18:41.311Z,100514.31
2023-05-13T12:20:05.901Z,100509.80
2023-05-13T12:22:29.530Z,100510.05
2023-05-13T12:24:54.698Z,100508.31
2023-05-13T12:25:59.150Z,100503.60
2023-05-13T12:27:07.217Z,100501.78
2023-05-13T12:28:20.099Z,100498.25
2023-05-13T12:29:23.296Z,100500.92
2023-05-13T12:30:27.200Z,100504.36
2023-05-13T12:31:30.689Z,100499.95
2023-05-13T12:32:34.547Z,100499.95
2023-05-13T12:33:42.774Z,100499.95
2023-05-13T12:34:50.566Z,100507.04
2023-05-13T12:37:27.289Z,100501.16
2023-05-13T12:38:31.774Z,100504.45
2023-05-13T12:39:34.190Z,100505.39
2023-05-13T12:40:37.007Z,100501.02
2023-05-13T12:41:40.927Z,100502.81
2023-05-13T12:42:46.766Z,100497.55
2023-05-13T12:43:50.524Z,100499.38
2023-05-13T12:44:54.105Z,100503.84
2023-05-13T12:46:00.225Z,100497.64
2023-05-13T12:47:04.256Z,100495.06
2023-05-13T12:48:07.078Z,100497.73
2023-05-13T12:49:12.482Z,100502.20
2023-05-13T12:50:15.688Z,100496.94
2023-05-13T12:51:18.896Z,100501.53
2023-05-13T12:52:21.799Z,100494.36
2023-05-13T12:53:24.980Z,100497.03
2023-05-13T12:54:27.653Z,100501.44
2023-05-13T12:55:31.162Z,100494.36
2023-05-13T12:56:33.985Z,100488.91
2023-05-13T12:57:36.850Z,100493.41
2023-05-13T12:59:52.971Z,100494.59
2023-05-13T13:00:55.636Z,100492.47
2023-05-13T13:03:24.882Z,100488.30
2023-05-13T13:04:27.804Z,100492.47
2023-05-13T13:05:32.311Z,100492.38
2023-05-13T13:06:35.203Z,100482.62
2023-05-13T13:07:38.118Z,100490.56
2023-05-13T13:08:40.976Z,100489.70
2023-05-13T13:09:44.857Z,100490.56
2023-05-13T13:10:48.124Z,100480.80
2023-05-13T13:11:52.428Z,100486.09
2023-05-13T13:12:55.252Z,100493.14